sensor_id;sensor_type;location;lat;lon;timestamp;P1;durP1;ratioP1;P2;durP2;ratioP2
22017;SDS011;11173;51.050;7.108;2022-12-29T00:04:04;0.30;;;0.30;;
22017;SDS011;11173;51.050;7.108;2022-12-29T00:14:05;0.17;;;0.17;;
22017;SDS011;11173;51.050;7.108;2022-12-29T00:24:27;0.20;;;0.20;;
22017;SDS011;11173;51.050;7.108;2022-12-29T00:34:27;0.10;;;0.10;;
22017;SDS011;11173;51.050;7.108;2022-12-29T00:44:46;0.10;;;0.10;;
22017;SDS011;11173;51.050;7.108;2022-12-29T00:54:46;0.10;;;0.10;;
22017;SDS011;11173;51.050;7.108;2022-12-29T01:04:47;0.20;;;0.20;;
22017;SDS011;11173;51.050;7.108;2022-12-29T01:14:47;0.20;;;0.20;;
22017;SDS011;11173;51.050;7.108;2022-12-29T01:24:48;0.10;;;0.10;;
22017;SDS011;11173;51.050;7.108;2022-12-29T01:34:49;0.10;;;0.10;;
22017;SDS011;11173;51.050;7.108;2022-12-29T01:44:51;0.10;;;0.10;;
22017;SDS011;11173;51.050;7.108;2022-12-29T01:54:59;0.10;;;0.10;;
22017;SDS011;11173;51.050;7.108;2022-12-29T02:05:05;0.10;;;0.10;;
22017;SDS011;11173;51.050;7.108;2022-12-29T02:15:11;0.20;;;0.20;;
22017;SDS011;11173;51.050;7.108;2022-12-29T02:25:22;0.20;;;0.20;;
22017;SDS011;11173;51.050;7.108;2022-12-29T02:45:51;0.20;;;0.20;;
22017;SDS011;11173;51.050;7.108;2022-12-29T02:55:55;0.10;;;0.10;;
22017;SDS011;11173;51.050;7.108;2022-12-29T03:06:01;0.15;;;0.15;;
22017;SDS011;11173;51.050;7.108;2022-12-29T03:26:39;0.20;;;0.20;;
22017;SDS011;11173;51.050;7.108;2022-12-29T03:36:47;0.45;;;0.15;;
22017;SDS011;11173;51.050;7.108;2022-12-29T03:46:52;0.10;;;0.10;;
22017;SDS011;11173;51.050;7.108;2022-12-29T03:56:52;0.95;;;0.20;;
22017;SDS011;11173;51.050;7.108;2022-12-29T04:06:52;0.20;;;0.20;;
22017;SDS011;11173;51.050;7.108;2022-12-29T04:16:53;0.10;;;0.10;;
22017;SDS011;11173;51.050;7.108;2022-12-29T04:26:53;0.10;;;0.10;;
22017;SDS011;11173;51.050;7.108;2022-12-29T04:36:53;0.17;;;0.17;;
22017;SDS011;11173;51.050;7.108;2022-12-29T04:46:54;0.25;;;0.20;;
22017;SDS011;11173;51.050;7.108;2022-12-29T04:56:54;0.20;;;0.20;;
22017;SDS011;11173;51.050;7.108;2022-12-29T05:06:55;0.10;;;0.10;;
22017;SDS011;11173;51.050;7.108;2022-12-29T05:16:55;0.20;;;0.20;;
22017;SDS011;11173;51.050;7.108;2022-12-29T05:36:56;0.20;;;0.20;;
22017;SDS011;11173;51.050;7.108;2022-12-29T05:46:56;0.65;;;0.20;;
22017;SDS011;11173;51.050;7.108;2022-12-29T06:16:57;0.20;;;0.20;;
22017;SDS011;11173;51.050;7.108;2022-12-29T06:36:57;0.35;;;0.10;;
22017;SDS011;11173;51.050;7.108;2022-12-29T07:06:58;0.13;;;0.13;;
22017;SDS011;11173;51.050;7.108;2022-12-29T07:16:59;0.10;;;0.10;;
22017;SDS011;11173;51.050;7.108;2022-12-29T07:36:59;0.30;;;0.20;;
22017;SDS011;11173;51.050;7.108;2022-12-29T07:47:00;0.20;;;0.20;;
22017;SDS011;11173;51.050;7.108;2022-12-29T07:57:00;0.45;;;0.32;;
22017;SDS011;11173;51.050;7.108;2022-12-29T08:07:00;0.82;;;0.45;;
22017;SDS011;11173;51.050;7.108;2022-12-29T08:17:01;2.65;;;0.50;;
22017;SDS011;11173;51.050;7.108;2022-12-29T08:27:01;0.85;;;0.40;;
22017;SDS011;11173;51.050;7.108;2022-12-29T08:37:02;0.40;;;0.40;;
22017;SDS011;11173;51.050;7.108;2022-12-29T08:47:02;0.45;;;0.40;;
22017;SDS011;11173;51.050;7.108;2022-12-29T08:57:02;0.47;;;0.30;;
22017;SDS011;11173;51.050;7.108;2022-12-29T09:07:03;0.98;;;0.40;;
22017;SDS011;11173;51.050;7.108;2022-12-29T09:17:04;1.75;;;0.50;;
22017;SDS011;11173;51.050;7.108;2022-12-29T09:27:23;1.20;;;0.50;;
22017;SDS011;11173;51.050;7.108;2022-12-29T09:37:23;1.35;;;0.63;;
22017;SDS011;11173;51.050;7.108;2022-12-29T09:47:23;5.20;;;1.10;;
22017;SDS011;11173;51.050;7.108;2022-12-29T10:28:35;1.88;;;0.63;;
22017;SDS011;11173;51.050;7.108;2022-12-29T10:38:40;2.38;;;0.63;;
22017;SDS011;11173;51.050;7.108;2022-12-29T10:48:47;2.65;;;1.00;;
22017;SDS011;11173;51.050;7.108;2022-12-29T11:08:59;3.20;;;0.85;;
22017;SDS011;11173;51.050;7.108;2022-12-29T11:19:19;1.05;;;0.40;;
22017;SDS011;11173;51.050;7.108;2022-12-29T11:29:23;3.57;;;0.77;;
22017;SDS011;11173;51.050;7.108;2022-12-29T11:39:27;2.13;;;0.60;;
22017;SDS011;11173;51.050;7.108;2022-12-29T11:49:32;3.10;;;0.80;;
22017;SDS011;11173;51.050;7.108;2022-12-29T12:19:53;7.35;;;1.10;;
22017;SDS011;11173;51.050;7.108;2022-12-29T12:30:04;2.20;;;0.80;;
22017;SDS011;11173;51.050;7.108;2022-12-29T12:50:26;3.13;;;1.33;;
22017;SDS011;11173;51.050;7.108;2022-12-29T13:22:19;3.95;;;1.27;;
22017;SDS011;11173;51.050;7.108;2022-12-29T13:42:43;2.08;;;0.65;;
22017;SDS011;11173;51.050;7.108;2022-12-29T14:03:31;4.05;;;1.15;;
22017;SDS011;11173;51.050;7.108;2022-12-29T14:13:45;2.53;;;0.95;;
22017;SDS011;11173;51.050;7.108;2022-12-29T14:23:47;1.30;;;0.82;;
22017;SDS011;11173;51.050;7.108;2022-12-29T14:44:15;1.63;;;0.60;;
22017;SDS011;11173;51.050;7.108;2022-12-29T15:04:32;0.93;;;0.75;;
22017;SDS011;11173;51.050;7.108;2022-12-29T15:14:39;0.70;;;0.50;;
22017;SDS011;11173;51.050;7.108;2022-12-29T15:24:49;1.05;;;0.82;;
22017;SDS011;11173;51.050;7.108;2022-12-29T15:34:53;2.33;;;0.70;;
22017;SDS011;11173;51.050;7.108;2022-12-29T15:44:54;2.55;;;0.70;;
22017;SDS011;11173;51.050;7.108;2022-12-29T15:54:55;1.67;;;0.80;;
22017;SDS011;11173;51.050;7.108;2022-12-29T16:04:58;1.88;;;0.80;;
22017;SDS011;11173;51.050;7.108;2022-12-29T16:14:59;1.42;;;0.85;;
22017;SDS011;11173;51.050;7.108;2022-12-29T16:25:03;1.90;;;0.77;;
22017;SDS011;11173;51.050;7.108;2022-12-29T16:35:10;1.40;;;0.50;;
22017;SDS011;11173;51.050;7.108;2022-12-29T16:55:20;0.50;;;0.45;;
22017;SDS011;11173;51.050;7.108;2022-12-29T17:05:20;0.57;;;0.50;;
22017;SDS011;11173;51.050;7.108;2022-12-29T17:15:23;1.20;;;0.60;;
22017;SDS011;11173;51.050;7.108;2022-12-29T17:25:27;1.85;;;0.60;;
22017;SDS011;11173;51.050;7.108;2022-12-29T17:35:31;0.55;;;0.50;;
22017;SDS011;11173;51.050;7.108;2022-12-29T17:45:31;1.88;;;0.80;;
22017;SDS011;11173;51.050;7.108;2022-12-29T17:55:32;1.23;;;0.68;;
22017;SDS011;11173;51.050;7.108;2022-12-29T18:05:33;0.65;;;0.50;;
22017;SDS011;11173;51.050;7.108;2022-12-29T18:15:34;0.80;;;0.60;;
22017;SDS011;11173;51.050;7.108;2022-12-29T18:25:39;1.60;;;0.90;;
22017;SDS011;11173;51.050;7.108;2022-12-29T18:35:54;2.13;;;0.90;;
22017;SDS011;11173;51.050;7.108;2022-12-29T18:45:57;4.45;;;1.33;;
22017;SDS011;11173;51.050;7.108;2022-12-29T18:55:58;0.70;;;0.55;;
22017;SDS011;11173;51.050;7.108;2022-12-29T19:05:58;1.13;;;0.80;;
22017;SDS011;11173;51.050;7.108;2022-12-29T19:15:59;0.70;;;0.70;;
22017;SDS011;11173;51.050;7.108;2022-12-29T19:26:00;1.70;;;0.80;;
22017;SDS011;11173;51.050;7.108;2022-12-29T19:36:00;2.28;;;1.30;;
22017;SDS011;11173;51.050;7.108;2022-12-29T19:46:05;1.33;;;0.90;;
22017;SDS011;11173;51.050;7.108;2022-12-29T19:56:07;1.65;;;0.90;;
22017;SDS011;11173;51.050;7.108;2022-12-29T20:06:08;1.85;;;1.10;;
22017;SDS011;11173;51.050;7.108;2022-12-29T20:16:11;6.65;;;4.07;;
22017;SDS011;11173;51.050;7.108;2022-12-29T20:26:14;2.25;;;1.40;;
22017;SDS011;11173;51.050;7.108;2022-12-29T20:36:33;1.08;;;0.82;;
22017;SDS011;11173;51.050;7.108;2022-12-29T20:46:36;3.25;;;2.20;;
22017;SDS011;11173;51.050;7.108;2022-12-29T20:56:36;2.47;;;1.23;;
22017;SDS011;11173;51.050;7.108;2022-12-29T21:06:37;1.27;;;1.00;;
22017;SDS011;11173;51.050;7.108;2022-12-29T21:16:37;1.30;;;0.80;;
22017;SDS011;11173;51.050;7.108;2022-12-29T21:26:38;3.08;;;1.10;;
22017;SDS011;11173;51.050;7.108;2022-12-29T21:36:38;0.95;;;0.82;;
22017;SDS011;11173;51.050;7.108;2022-12-29T21:46:39;1.90;;;0.88;;
22017;SDS011;11173;51.050;7.108;2022-12-29T21:56:43;2.45;;;1.35;;
22017;SDS011;11173;51.050;7.108;2022-12-29T22:06:47;3.40;;;1.30;;
22017;SDS011;11173;51.050;7.108;2022-12-29T22:17:05;0.97;;;0.90;;
22017;SDS011;11173;51.050;7.108;2022-12-29T22:27:06;0.77;;;0.77;;
22017;SDS011;11173;51.050;7.108;2022-12-29T22:37:06;1.02;;;0.80;;
22017;SDS011;11173;51.050;7.108;2022-12-29T22:47:07;1.67;;;0.80;;
22017;SDS011;11173;51.050;7.108;2022-12-29T22:57:07;1.45;;;0.90;;
22017;SDS011;11173;51.050;7.108;2022-12-29T23:07:08;1.50;;;0.80;;
22017;SDS011;11173;51.050;7.108;2022-12-29T23:17:08;0.90;;;0.90;;
22017;SDS011;11173;51.050;7.108;2022-12-29T23:27:09;1.17;;;0.90;;
22017;SDS011;11173;51.050;7.108;2022-12-29T23:37:09;1.25;;;0.95;;
22017;SDS011;11173;51.050;7.108;2022-12-29T23:47:10;1.13;;;0.98;;
22017;SDS011;11173;51.050;7.108;2022-12-29T23:57:10;1.58;;;0.80;;
